TAF KMRY
AMD KMRY 080257Z 0803/0824 VRB03KT 6SM BR OVC013 TEMPO 0803/0806 BKN007 FM081200 VRB03KT 2SM BR OVC015 FM081700 18003KT 6SM BR BKN015 FM082000 VRB04KT 6SM BR SCT015=
METAR KMRY
WC KMRY
WS KMRY
WV KMRY